Latest Weather Observations for Griffith

IDN60801

Issued at 5:02 pm EST Tuesday 7 July 2015 (issued every 30 minutes, with the page automatically refreshed every 10 minutes)

About weather observations | Map of weather stations | Latest weather observations for NSW | Other Formats
Station Details ID: 075041 Name: GRIFFITH AIRPORT AWS Lat: -34.25 Lon: 146.07 Height: 134.0 m
Data from the previous 72 hours. | See also: Recent months at Griffith
Date/Time
EST
Temp
°C
App
Temp
°C
Dew
Point
Rel
Hum
%
Delta-T
°C
Wind Press
QNH
hPa
Press
MSL
hPa
Rain
since 9 am
mm
Dir
 
Spd
km/h
Gust
km/h
Spd
kts
Gust
kts
07/05:00pm 13.4 11.6 7.2 66 3.0 WSW 6 9 3 5 1022.0 1022.3 0.0
07/04:30pm 14.6 13.9 6.9 60 3.8 CALM 0 0 0 0 1021.8 1022.1 0.0
07/04:00pm 14.5 12.6 6.6 59 3.8 SSW 6 9 3 5 1021.5 1021.8 0.0
07/03:30pm 14.7 13.1 6.3 57 4.1 SW 4 7 2 4 1021.4 1021.7 0.0
07/03:00pm 14.4 13.9 7.7 64 3.3 CALM 0 0 0 0 1021.3 1021.6 0.0
07/02:30pm 13.6 13.0 7.6 67 3.0 CALM 0 0 0 0 1021.1 1021.4 0.0
07/02:00pm 13.4 11.9 8.3 71 2.5 S 6 9 3 5 1021.1 1021.4 0.0
07/01:30pm 14.4 12.9 6.7 60 3.8 N 4 7 2 4 1021.2 1021.5 0.0
07/01:00pm 13.9 13.1 8.1 68 2.9 W 2 7 1 4 1021.4 1021.7 0.0
07/12:30pm 13.6 12.8 8.2 70 2.7 NNW 2 7 1 4 1021.5 1021.8 0.0
07/12:00pm 12.9 12.6 8.6 75 2.2 CALM 0 0 0 0 1021.9 1022.2 0.0
07/11:30am 12.2 11.4 8.1 76 2.0 NW 2 6 1 3 1022.1 1022.4 0.0
07/11:00am 10.9 9.6 7.8 81 1.5 NNW 4 7 2 4 1022.2 1022.5 0.0
07/10:30am 10.5 9.9 7.6 82 1.4 CALM 0 6 0 3 1022.4 1022.7 0.0
07/10:00am 9.0 7.3 7.6 91 0.7 W 6 9 3 5 1022.3 1022.6 0.0
07/09:30am 8.6 6.8 8.0 96 0.3 NW 7 9 4 5 1022.0 1022.3 0.0
07/09:00am 7.7 6.4 7.6 99 0.0 NW 4 6 2 3 1021.7 1022.0 1.4
07/08:30am 5.9 5.0 5.9 100 0.0 CALM 0 0 0 0 1021.5 1021.8 1.4
07/08:00am 4.9 3.7 4.8 99 0.0 CALM 0 0 0 0 1021.3 1021.6 1.4
07/07:37am 4.0 1.5 3.9 99 0.0 NNW 6 7 3 4 1021.1 1021.4 1.4
07/07:31am 3.9 1.4 3.8 99 0.0 NNW 6 7 3 4 1021.0 1021.3 1.4
07/07:30am 3.9 1.4 3.8 99 0.0 NNW 6 7 3 4 1021.0 1021.3 1.4
07/07:00am 4.1 2.8 4.0 99 0.0 CALM 0 0 0 0 1020.7 1021.0 1.4
07/06:41am 4.5 3.3 4.4 99 0.0 CALM 0 0 0 0 1020.4 1020.7 1.4
07/06:35am 4.0 2.7 3.9 99 0.0 CALM 0 0 0 0 1020.3 1020.5 1.4
07/06:30am 5.2 4.1 5.1 99 0.0 CALM 0 0 0 0 1020.2 1020.4 1.4
07/06:00am 5.8 4.8 5.7 99 0.0 CALM 0 0 0 0 1019.6 1019.8 1.4
07/05:30am 6.6 5.8 6.5 99 0.0 CALM 0 0 0 0 1019.2 1019.4 1.4
07/05:00am 6.5 5.7 6.4 99 0.0 CALM 0 0 0 0 1018.9 1019.1 1.4
07/04:30am 6.4 5.6 6.3 99 0.0 CALM 0 0 0 0 1018.8 1019.0 1.4
07/04:00am 6.5 5.7 6.4 99 0.0 CALM 0 0 0 0 1018.7 1018.9 1.4
07/03:30am 6.8 4.9 6.7 99 0.0 NE 6 7 3 4 1018.7 1018.9 1.4
07/03:00am 6.4 4.2 6.3 99 0.0 NNE 7 9 4 5 1018.7 1018.9 1.4
07/02:30am 8.2 7.8 8.1 99 0.0 CALM 0 0 0 0 1018.8 1019.0 1.4
07/02:00am 8.4 6.3 8.3 99 0.0 WSW 9 15 5 8 1018.8 1019.0 1.2
07/01:30am 8.9 6.9 8.8 99 0.0 N 9 13 5 7 1018.6 1018.8 1.2
07/01:00am 8.5 5.3 8.4 99 0.0 N 15 17 8 9 1018.6 1018.8 1.2
07/12:30am 8.9 5.7 7.0 88 0.9 WNW 13 17 7 9 1019.0 1019.2 0.2
07/12:00am 8.5 6.7 7.1 91 0.7 ENE 6 7 3 4 1018.5 1018.7 0.2
 
Date/Time
EST
Temp
°C
App
Temp
°C
Dew
Point
Rel
Hum
%
Delta-T
°C
Wind Press
QNH
hPa
Press
MSL
hPa
Rain
since 9 am
mm
Dir
 
Spd
km/h
Gust
km/h
Spd
kts
Gust
kts
06/11:30pm 8.3 5.9 7.1 92 0.6 ENE 9 11 5 6 1018.6 1018.8 0.2
06/11:00pm 8.8 7.0 7.3 90 0.7 ENE 6 7 3 4 1018.7 1018.9 0.2
06/10:30pm 8.2 6.1 6.8 91 0.7 E 7 9 4 5 1018.7 1018.9 0.2
06/10:00pm 9.0 7.2 7.1 88 0.9 E 6 9 3 5 1018.7 1018.9 0.2
06/09:30pm 9.5 8.7 6.6 82 1.4 CALM 0 0 0 0 1018.6 1018.8 0.2
06/09:00pm 10.2 9.4 6.7 79 1.7 CALM 0 0 0 0 1018.6 1018.8 0.2
06/08:30pm 9.7 8.2 7.0 83 1.3 NNE 4 6 2 3 1018.6 1018.8 0.2
06/08:00pm 9.0 8.3 7.1 88 0.9 CALM 0 4 0 2 1018.4 1018.6 0.2
06/07:30pm 9.4 8.6 6.5 82 1.4 CALM 0 0 0 0 1018.3 1018.5 0.2
06/07:00pm 9.3 7.4 6.7 84 1.2 NNE 6 7 3 4 1018.2 1018.4 0.2
06/06:30pm 9.5 8.9 7.3 86 1.0 CALM 0 0 0 0 1018.0 1018.2 0.2
06/06:00pm 9.6 8.8 6.7 82 1.4 CALM 0 0 0 0 1017.7 1017.9 0.2
06/05:30pm 10.0 8.9 5.0 71 2.3 CALM 0 0 0 0 1017.3 1017.5 0.2
06/05:00pm 12.9 11.5 5.3 60 3.6 NW 2 7 1 4 1017.2 1017.4 0.2
06/04:30pm 13.9 11.8 6.0 59 3.8 NW 6 6 3 3 1017.2 1017.4 0.2
06/04:00pm 13.4 9.8 5.1 57 3.9 WNW 13 17 7 9 1017.3 1017.5 0.2
06/03:30pm 13.4 10.2 5.3 58 3.8 NW 11 13 6 7 1017.1 1017.3 0.2
06/03:00pm 13.4 9.4 5.1 57 3.9 NW 15 20 8 11 1017.1 1017.3 0.2
06/02:30pm 13.4 9.8 4.8 56 4.0 NW 13 20 7 11 1017.2 1017.4 0.2
06/02:00pm 13.3 9.1 3.9 53 4.3 NW 15 20 8 11 1017.1 1017.3 0.2
06/01:30pm 13.1 9.3 4.0 54 4.2 NW 13 17 7 9 1017.5 1017.7 0.0
06/01:00pm 13.3 9.6 4.5 55 4.1 NW 13 19 7 10 1017.7 1017.9 0.0
06/12:30pm 12.2 8.5 4.2 58 3.6 NW 13 19 7 10 1018.0 1018.2 0.0
06/12:00pm 11.8 8.7 3.8 58 3.6 NW 9 15 5 8 1018.4 1018.6 0.0
06/11:30am 11.3 8.0 4.3 62 3.2 NNW 11 15 6 8 1018.9 1019.1 0.0
06/11:00am 11.0 7.7 4.5 64 2.9 NNW 11 15 6 8 1019.1 1019.3 0.0
06/10:30am 9.8 6.9 4.8 71 2.3 NNW 9 11 5 6 1019.2 1019.4 0.0
06/10:00am 8.7 5.8 4.5 75 1.9 NNW 9 13 5 7 1019.5 1019.7 0.0
06/09:30am 7.8 5.9 6.9 94 0.4 N 6 9 3 5 1019.2 1019.4 0.0
06/09:00am 4.8 3.6 4.8 100 0.0 CALM 0 0 0 0 1019.1 1019.3 0.0
06/08:30am 3.2 1.7 3.1 99 0.0 CALM 0 0 0 0 1019.2 1019.4 0.0
06/08:00am 0.9 -1.0 0.8 99 0.0 CALM 0 0 0 0 1019.0 1019.2 0.0
06/07:40am 0.6 -1.3 0.5 99 0.0 CALM 0 0 0 0 1019.0 1019.2 0.0
06/07:30am -0.2 -2.6 -0.3 99 0.0 SW 2 6 1 3 1019.0 1019.2 0.0
06/07:11am -0.9 -3.0 -1.0 99 0.0 CALM 0 0 0 0 1018.9 1019.1 0.0
06/07:00am -0.9 -3.0 -1.0 99 0.0 CALM 0 0 0 0 1018.8 1019.0 0.0
06/06:30am -0.9 -3.0 -1.0 99 0.0 CALM 0 0 0 0 1018.8 1019.0 0.0
06/06:00am -0.2 -2.2 -0.3 99 0.0 CALM 0 0 0 0 1018.5 1018.7 0.0
06/05:50am -0.5 -2.6 -0.6 99 0.0 CALM 0 0 0 0 1018.5 1018.7 0.0
06/05:39am -0.5 -2.6 -0.6 99 0.0 CALM 0 0 0 0 1018.4 1018.6 0.0
06/05:38am -0.5 -2.6 -0.6 99 0.0 CALM 0 0 0 0 1018.4 1018.6 0.0
06/05:37am -0.6 -2.7 -0.7 99 0.0 CALM 0 0 0 0 1018.4 1018.6 0.0
06/05:30am -0.5 -2.6 -0.6 99 0.0 CALM 0 0 0 0 1018.4 1018.6 0.0
06/05:00am -0.1 -2.1 -0.2 99 0.0 CALM 0 0 0 0 1018.5 1018.7 0.0
06/04:44am -0.2 -2.2 -0.3 99 0.0 CALM 0 0 0 0 1018.5 1018.7 0.0
06/04:32am -0.3 -2.3 -0.4 99 0.0 CALM 0 0 0 0 1018.6 1018.8 0.0
06/04:30am -0.3 -2.3 -0.4 99 0.0 CALM 0 0 0 0 1018.6 1018.8 0.0
06/04:13am -0.3 -2.3 -0.4 99 0.0 CALM 0 0 0 0 1018.6 1018.8 0.0
06/04:00am -0.4 -2.5 -0.5 99 0.0 CALM 0 0 0 0 1018.7 1018.9 0.0
06/03:53am -0.1 -2.1 -0.2 99 0.0 CALM 0 0 0 0 1018.8 1019.0 0.0
06/03:30am 0.2 -1.8 0.1 99 0.0 CALM 0 0 0 0 1018.8 1019.0 0.0
06/03:00am 0.2 -1.8 0.1 99 0.0 CALM 0 0 0 0 1018.9 1019.1 0.0
06/02:30am 0.6 -1.3 0.5 99 0.0 CALM 0 0 0 0 1019.0 1019.2 0.0
06/02:00am 1.2 -0.6 1.1 99 0.0 CALM 0 0 0 0 1019.3 1019.5 0.0
06/01:30am 0.4 -1.5 0.3 99 0.0 CALM 0 0 0 0 1019.4 1019.6 0.0
06/01:00am 1.3 -0.5 1.2 99 0.0 CALM 0 0 0 0 1019.6 1019.8 0.0
06/12:30am 2.1 0.4 2.0 99 0.0 CALM 0 0 0 0 1019.9 1020.1 0.0
06/12:00am 2.8 1.2 2.2 96 0.2 CALM 0 0 0 0 1020.1 1020.3 0.0
 
Date/Time
EST
Temp
°C
App
Temp
°C
Dew
Point
Rel
Hum
%
Delta-T
°C
Wind Press
QNH
hPa
Press
MSL
hPa
Rain
since 9 am
mm
Dir
 
Spd
km/h
Gust
km/h
Spd
kts
Gust
kts
05/11:30pm 3.6 -0.3 3.3 98 0.1 E 13 15 7 8 1020.1 1020.3 0.0
05/11:00pm 3.9 0.0 3.5 97 0.2 E 13 15 7 8 1020.0 1020.2 0.0
05/10:30pm 4.0 -0.3 3.1 94 0.4 ESE 15 15 8 8 1020.1 1020.3 0.0
05/10:00pm 4.0 0.1 3.3 95 0.3 ESE 13 15 7 8 1020.3 1020.5 0.0
05/09:30pm 4.0 1.2 3.0 93 0.4 SE 7 11 4 6 1020.5 1020.8 0.0
05/09:00pm 4.8 3.5 3.9 94 0.4 CALM 0 0 0 0 1020.6 1020.9 0.0
05/08:30pm 4.0 1.3 2.5 90 0.6 SE 6 7 3 4 1020.5 1020.8 0.0
05/08:00pm 3.8 0.5 2.3 90 0.6 ESE 9 11 5 6 1020.5 1020.8 0.0
05/07:30pm 5.4 2.3 3.6 88 0.8 SE 9 9 5 5 1020.3 1020.5 0.0
05/07:00pm 4.6 1.8 2.9 89 0.7 SSE 7 7 4 4 1020.2 1020.4 0.0
05/06:30pm 6.8 3.8 4.1 83 1.2 SE 9 11 5 6 1020.1 1020.3 0.0
05/06:00pm 6.7 5.3 3.7 81 1.3 CALM 0 0 0 0 1020.0 1020.2 0.0
05/05:30pm 7.9 6.6 4.1 77 1.7 CALM 0 0 0 0 1020.0 1020.2 0.0
05/05:00pm 11.4 10.1 4.2 61 3.2 CALM 0 0 0 0 1020.0 1020.2 0.0
05/04:30pm 11.8 9.1 3.8 58 3.6 SW 7 11 4 6 1020.3 1020.5 0.0
05/04:00pm 12.4 9.9 3.6 55 3.9 W 6 11 3 6 1020.3 1020.5 0.0
05/03:30pm 12.4 10.2 3.6 55 4.0 WNW 4 11 2 6 1020.2 1020.4 0.0
05/03:00pm 12.0 8.9 3.5 56 3.8 WNW 9 15 5 8 1020.3 1020.5 0.0
05/02:30pm 12.0 10.2 3.3 55 3.9 WNW 2 9 1 5 1020.3 1020.5 0.0
05/02:00pm 11.4 8.9 3.7 59 3.4 S 6 9 3 5 1020.7 1021.0 0.0
05/01:30pm 11.2 9.8 3.7 60 3.3 CALM 0 6 0 3 1021.1 1021.4 0.0
05/01:00pm 10.6 8.0 3.2 60 3.2 E 6 11 3 6 1021.4 1021.7 0.0
05/12:30pm 11.2 8.5 3.7 60 3.3 N 7 11 4 6 1021.7 1022.0 0.0
05/12:00pm 10.9 8.1 3.2 59 3.4 NNW 7 13 4 7 1022.4 1022.7 0.0
05/11:30am 10.8 8.3 4.0 63 3.0 WNW 6 9 3 5 1023.1 1023.4 0.0
05/11:00am 10.0 7.5 5.0 71 2.3 WSW 7 11 4 6 1023.7 1023.9 0.0
05/10:30am 8.9 7.7 4.7 75 1.9 CALM 0 2 0 1 1023.8 1024.0 0.0
05/10:00am 7.5 6.0 5.0 84 1.1 SE 2 7 1 4 1023.6 1023.8 0.0
05/09:30am 5.7 3.2 4.5 92 0.5 E 7 9 4 5 1023.2 1023.5 0.0
05/09:00am 3.7 0.6 3.6 99 0.0 E 9 11 5 6 1023.4 1023.7 0.0
05/08:30am 2.6 -0.7 2.5 99 0.0 E 9 11 5 6 1023.2 1023.5 0.0
05/08:00am 1.2 -2.7 1.1 99 0.0 ESE 11 13 6 7 1023.3 1023.6 0.0
05/07:30am 0.2 -3.1 0.1 99 0.0 E 7 7 4 4 1023.4 1023.7 0.0
05/07:00am 0.2 -3.9 0.1 99 0.0 E 11 11 6 6 1023.1 1023.4 0.0
05/06:30am 0.0 -4.1 -0.1 99 0.0 ESE 11 13 6 7 1022.7 1023.0 0.0
05/06:00am -0.5 -4.7 -0.6 99 0.0 E 11 17 6 9 1022.7 1023.0 0.0
05/05:30am -0.6 -2.7 -0.7 99 0.0 CALM 0 0 0 0 1022.8 1023.1 0.0
05/05:00am -0.5 -3.7 -0.6 99 0.0 SW 6 6 3 3 1022.5 1022.8 0.0
05/04:30am -0.4 -2.8 -0.5 99 0.0 WSW 2 7 1 4 1022.4 1022.7 0.0
05/04:00am 0.1 -1.9 0.0 99 0.0 CALM 0 0 0 0 1022.2 1022.5 0.0
05/03:30am 0.6 -1.3 0.5 99 0.0 CALM 0 0 0 0 1022.6 1022.9 0.0
05/03:00am 0.3 -1.7 0.2 99 0.0 CALM 0 0 0 0 1022.7 1023.0 0.0
05/02:30am 0.2 -1.8 0.1 99 0.0 CALM 0 0 0 0 1023.1 1023.4 0.0
05/02:00am 0.6 -1.3 0.5 99 0.0 CALM 0 0 0 0 1023.4 1023.7 0.0
05/01:30am 0.4 -1.5 0.3 99 0.0 CALM 0 0 0 0 1023.8 1024.0 0.0
05/01:00am 0.9 -1.0 0.8 99 0.0 CALM 0 0 0 0 1023.9 1024.1 0.0
05/12:30am 0.6 -2.5 -0.1 95 0.3 N 6 7 3 4 1023.8 1024.0 0.0
05/12:00am 2.1 -0.7 1.8 98 0.1 ESE 6 7 3 4 1024.0 1024.2 0.0
 
Date/Time
EST
Temp
°C
App
Temp
°C
Dew
Point
Rel
Hum
%
Delta-T
°C
Wind Press
QNH
hPa
Press
MSL
hPa
Rain
since 9 am
mm
Dir
 
Spd
km/h
Gust
km/h
Spd
kts
Gust
kts
04/11:30pm 2.1 -1.3 1.7 97 0.2 ESE 9 11 5 6 1024.0 1024.2 0.0
04/11:00pm 2.5 -1.3 1.5 93 0.4 ESE 11 13 6 7 1023.9 1024.1 0.0
04/10:30pm 2.6 -0.4 1.7 94 0.4 ESE 7 9 4 5 1023.8 1024.0 0.0
04/10:00pm 2.3 0.6 2.0 98 0.1 CALM 0 0 0 0 1023.7 1023.9 0.0
04/09:30pm 2.2 0.5 1.6 96 0.2 CALM 0 0 0 0 1024.2 1024.4 0.0
04/09:00pm 2.6 0.9 1.9 95 0.3 CALM 0 0 0 0 1024.2 1024.4 0.0
04/08:30pm 3.0 1.3 2.0 93 0.4 CALM 0 0 0 0 1024.1 1024.3 0.0
04/08:00pm 3.2 1.6 2.3 94 0.4 CALM 0 0 0 0 1024.0 1024.2 0.0
04/07:30pm 3.5 1.1 2.3 92 0.5 S 4 6 2 3 1024.0 1024.2 0.0
04/07:00pm 4.1 0.9 2.8 91 0.5 S 9 9 5 5 1024.0 1024.2 0.0
04/06:30pm 4.4 2.9 2.8 89 0.7 CALM 0 0 0 0 1023.9 1024.1 0.0
04/06:00pm 5.3 3.7 2.5 82 1.1 CALM 0 0 0 0 1023.8 1024.0 0.0
04/05:30pm 7.5 5.9 2.4 70 2.1 CALM 0 0 0 0 1023.8 1024.0 0.0

Other Formats:

Comma delimited format used in spreadsheet applications
http://www.bom.gov.au/fwo/IDN60801/IDN60801.95704.axf

JavaScript Object Notation format (JSON) in row-major order
http://www.bom.gov.au/fwo/IDN60801/IDN60801.95704.json